Oak Grove, Arkansas
Current Conditions -  °F | °C
As of 8:45 AM on Saturday 25 Oct 2014 (Local Time) from KBBG Reporting Station
Clear Clear  
Wind Chill: 68°   Ceiling: Unl
Heat Index: 68°   Visibility: 10mi
Dew Point: 59°   Wind: 7mph
Humidity: 73%   Direction: 250°WSW
Pressure: 30.11"   Gusts: NA
Location:  36.46°N, 93.44°W
Report Text: KBBG 251345Z 25006KT 10SM SKC 20/15 A3011
Loading
Personal Weather Stations






























Interactive Weather Map New forecast layout! Learn more

10-Day Weather Forecast

Advertisements
Track Severe Weather on mobile